sensor_id;sensor_type;location;lat;lon;timestamp;pressure;altitude;pressure_sealevel;temperature;humidity
27613;BME280;15036;48.094;-1.690;2023-04-26T00:01:15;100928.63;;;18.70;43.75
27613;BME280;15036;48.094;-1.690;2023-04-26T00:03:41;100925.66;;;18.71;43.88
27613;BME280;15036;48.094;-1.690;2023-04-26T00:06:07;100938.09;;;18.57;44.21
27613;BME280;15036;48.094;-1.690;2023-04-26T00:08:37;100925.84;;;18.53;44.14
27613;BME280;15036;48.094;-1.690;2023-04-26T00:11:02;100927.91;;;18.74;43.84
27613;BME280;15036;48.094;-1.690;2023-04-26T00:13:28;100921.47;;;18.85;43.60
27613;BME280;15036;48.094;-1.690;2023-04-26T00:15:54;100919.47;;;18.53;44.44
27613;BME280;15036;48.094;-1.690;2023-04-26T00:18:20;100912.69;;;18.60;44.27
27613;BME280;15036;48.094;-1.690;2023-04-26T00:20:45;100904.19;;;18.50;44.36
27613;BME280;15036;48.094;-1.690;2023-04-26T00:23:14;100910.78;;;18.61;44.32
27613;BME280;15036;48.094;-1.690;2023-04-26T00:25:40;100907.25;;;18.37;44.92
27613;BME280;15036;48.094;-1.690;2023-04-26T00:28:06;100911.91;;;18.48;44.54
27613;BME280;15036;48.094;-1.690;2023-04-26T00:30:34;100910.84;;;18.49;44.73
27613;BME280;15036;48.094;-1.690;2023-04-26T00:33:01;100909.81;;;18.27;45.32
27613;BME280;15036;48.094;-1.690;2023-04-26T00:35:27;100900.44;;;18.56;44.59
27613;BME280;15036;48.094;-1.690;2023-04-26T00:37:52;100907.22;;;18.49;44.79
27613;BME280;15036;48.094;-1.690;2023-04-26T00:40:17;100907.28;;;18.65;44.54
27613;BME280;15036;48.094;-1.690;2023-04-26T00:42:44;100919.25;;;18.43;45.02
27613;BME280;15036;48.094;-1.690;2023-04-26T00:45:10;100930.09;;;18.33;45.38
27613;BME280;15036;48.094;-1.690;2023-04-26T00:47:35;100926.50;;;18.44;45.23
27613;BME280;15036;48.094;-1.690;2023-04-26T00:50:01;100926.09;;;18.40;45.21
27613;BME280;15036;48.094;-1.690;2023-04-26T00:52:27;100927.03;;;18.17;45.45
27613;BME280;15036;48.094;-1.690;2023-04-26T00:54:54;100921.31;;;18.47;45.04
27613;BME280;15036;48.094;-1.690;2023-04-26T00:57:20;100924.75;;;18.54;45.20
27613;BME280;15036;48.094;-1.690;2023-04-26T00:59:46;100921.66;;;18.39;45.30
27613;BME280;15036;48.094;-1.690;2023-04-26T01:02:11;100910.25;;;18.47;45.35
27613;BME280;15036;48.094;-1.690;2023-04-26T01:04:37;100918.78;;;18.46;45.52
27613;BME280;15036;48.094;-1.690;2023-04-26T01:07:04;100914.44;;;18.50;45.29
27613;BME280;15036;48.094;-1.690;2023-04-26T01:09:31;100903.16;;;18.40;45.41
27613;BME280;15036;48.094;-1.690;2023-04-26T01:11:56;100905.31;;;18.49;45.21
27613;BME280;15036;48.094;-1.690;2023-04-26T01:14:23;100903.91;;;18.63;45.30
27613;BME280;15036;48.094;-1.690;2023-04-26T01:16:48;100900.75;;;18.43;45.39
27613;BME280;15036;48.094;-1.690;2023-04-26T01:19:14;100897.84;;;18.50;45.60
27613;BME280;15036;48.094;-1.690;2023-04-26T01:21:41;100898.94;;;18.49;45.61
27613;BME280;15036;48.094;-1.690;2023-04-26T01:24:11;100890.50;;;18.55;45.57
27613;BME280;15036;48.094;-1.690;2023-04-26T01:26:41;100892.16;;;18.28;46.01
27613;BME280;15036;48.094;-1.690;2023-04-26T01:29:17;100881.84;;;18.40;45.66
27613;BME280;15036;48.094;-1.690;2023-04-26T01:31:43;100893.91;;;18.46;45.95
27613;BME280;15036;48.094;-1.690;2023-04-26T01:34:08;100891.38;;;18.44;45.86
27613;BME280;15036;48.094;-1.690;2023-04-26T01:36:34;100896.41;;;18.47;45.95
27613;BME280;15036;48.094;-1.690;2023-04-26T01:38:59;100888.06;;;18.19;45.89
27613;BME280;15036;48.094;-1.690;2023-04-26T01:41:24;100882.78;;;18.57;45.50
27613;BME280;15036;48.094;-1.690;2023-04-26T01:43:50;100884.25;;;18.48;45.79
27613;BME280;15036;48.094;-1.690;2023-04-26T01:46:15;100876.56;;;18.50;45.72
27613;BME280;15036;48.094;-1.690;2023-04-26T01:48:40;100877.69;;;18.38;45.61
27613;BME280;15036;48.094;-1.690;2023-04-26T01:51:06;100871.63;;;18.24;46.06
27613;BME280;15036;48.094;-1.690;2023-04-26T01:53:31;100860.50;;;18.07;46.63
27613;BME280;15036;48.094;-1.690;2023-04-26T01:56:00;100866.22;;;18.17;46.06
27613;BME280;15036;48.094;-1.690;2023-04-26T01:58:26;100870.63;;;18.30;46.11
27613;BME280;15036;48.094;-1.690;2023-04-26T02:00:52;100866.91;;;18.25;46.08
27613;BME280;15036;48.094;-1.690;2023-04-26T02:03:17;100868.69;;;18.31;46.00
27613;BME280;15036;48.094;-1.690;2023-04-26T02:05:42;100860.84;;;18.11;46.42
27613;BME280;15036;48.094;-1.690;2023-04-26T02:08:08;100865.78;;;18.37;45.99
27613;BME280;15036;48.094;-1.690;2023-04-26T02:10:33;100869.28;;;18.33;45.87
27613;BME280;15036;48.094;-1.690;2023-04-26T02:12:59;100861.91;;;18.38;46.23
27613;BME280;15036;48.094;-1.690;2023-04-26T02:15:24;100862.31;;;18.02;46.57
27613;BME280;15036;48.094;-1.690;2023-04-26T02:17:51;100849.66;;;18.17;46.64
27613;BME280;15036;48.094;-1.690;2023-04-26T02:20:18;100849.69;;;18.34;46.21
27613;BME280;15036;48.094;-1.690;2023-04-26T02:22:43;100844.84;;;18.41;45.97
27613;BME280;15036;48.094;-1.690;2023-04-26T02:25:08;100849.19;;;18.37;46.20
27613;BME280;15036;48.094;-1.690;2023-04-26T02:27:35;100842.94;;;18.42;46.16
27613;BME280;15036;48.094;-1.690;2023-04-26T02:30:01;100833.94;;;18.35;46.17
27613;BME280;15036;48.094;-1.690;2023-04-26T02:32:27;100835.09;;;18.22;46.61
27613;BME280;15036;48.094;-1.690;2023-04-26T02:34:53;100839.03;;;18.26;46.38
27613;BME280;15036;48.094;-1.690;2023-04-26T02:37:18;100835.28;;;18.32;46.32
27613;BME280;15036;48.094;-1.690;2023-04-26T02:39:43;100834.59;;;18.25;46.32
27613;BME280;15036;48.094;-1.690;2023-04-26T02:42:10;100830.91;;;18.19;46.43
27613;BME280;15036;48.094;-1.690;2023-04-26T02:44:37;100834.84;;;18.24;46.41
27613;BME280;15036;48.094;-1.690;2023-04-26T02:47:03;100835.16;;;17.99;47.41
27613;BME280;15036;48.094;-1.690;2023-04-26T02:49:29;100836.09;;;18.33;46.49
27613;BME280;15036;48.094;-1.690;2023-04-26T02:51:55;100833.06;;;18.17;46.76
27613;BME280;15036;48.094;-1.690;2023-04-26T02:54:20;100833.50;;;18.26;46.34
27613;BME280;15036;48.094;-1.690;2023-04-26T02:56:46;100835.44;;;18.26;46.44
27613;BME280;15036;48.094;-1.690;2023-04-26T02:59:11;100829.56;;;18.22;46.47
27613;BME280;15036;48.094;-1.690;2023-04-26T03:01:36;100830.56;;;18.33;46.53
27613;BME280;15036;48.094;-1.690;2023-04-26T03:04:02;100833.50;;;17.98;46.99
27613;BME280;15036;48.094;-1.690;2023-04-26T03:06:27;100833.91;;;18.18;46.61
27613;BME280;15036;48.094;-1.690;2023-04-26T03:08:53;100835.13;;;18.10;46.91
27613;BME280;15036;48.094;-1.690;2023-04-26T03:11:19;100822.09;;;18.23;46.72
27613;BME280;15036;48.094;-1.690;2023-04-26T03:13:44;100821.66;;;18.14;47.05
27613;BME280;15036;48.094;-1.690;2023-04-26T03:16:10;100821.22;;;18.34;46.31
27613;BME280;15036;48.094;-1.690;2023-04-26T03:18:35;100816.63;;;18.11;47.01
27613;BME280;15036;48.094;-1.690;2023-04-26T03:21:02;100807.09;;;18.18;46.86
27613;BME280;15036;48.094;-1.690;2023-04-26T03:23:28;100817.34;;;18.18;46.92
27613;BME280;15036;48.094;-1.690;2023-04-26T03:25:53;100810.56;;;18.26;46.97
27613;BME280;15036;48.094;-1.690;2023-04-26T03:28:19;100808.44;;;18.16;46.92
27613;BME280;15036;48.094;-1.690;2023-04-26T03:30:44;100800.25;;;18.21;46.81
27613;BME280;15036;48.094;-1.690;2023-04-26T03:33:10;100806.03;;;18.19;46.66
27613;BME280;15036;48.094;-1.690;2023-04-26T03:35:36;100798.47;;;18.43;46.25
27613;BME280;15036;48.094;-1.690;2023-04-26T03:38:01;100802.22;;;18.09;46.91
27613;BME280;15036;48.094;-1.690;2023-04-26T03:40:27;100790.28;;;18.20;46.72
27613;BME280;15036;48.094;-1.690;2023-04-26T03:42:52;100795.16;;;18.30;46.44
27613;BME280;15036;48.094;-1.690;2023-04-26T03:45:17;100789.88;;;18.28;46.57
27613;BME280;15036;48.094;-1.690;2023-04-26T03:47:43;100784.19;;;18.35;46.44
27613;BME280;15036;48.094;-1.690;2023-04-26T03:50:08;100783.38;;;18.34;46.61
27613;BME280;15036;48.094;-1.690;2023-04-26T03:52:34;100785.69;;;17.97;47.07
27613;BME280;15036;48.094;-1.690;2023-04-26T03:55:00;100792.88;;;18.27;46.67
27613;BME280;15036;48.094;-1.690;2023-04-26T03:57:25;100793.13;;;18.25;46.93
27613;BME280;15036;48.094;-1.690;2023-04-26T03:59:50;100798.00;;;18.06;47.21
27613;BME280;15036;48.094;-1.690;2023-04-26T04:02:17;100794.44;;;18.06;47.24
27613;BME280;15036;48.094;-1.690;2023-04-26T04:04:42;100787.19;;;17.49;48.60
27613;BME280;15036;48.094;-1.690;2023-04-26T04:07:08;100796.69;;;18.09;47.30
27613;BME280;15036;48.094;-1.690;2023-04-26T04:09:33;100790.50;;;18.02;47.54
27613;BME280;15036;48.094;-1.690;2023-04-26T04:11:58;100789.00;;;18.11;47.38
27613;BME280;15036;48.094;-1.690;2023-04-26T04:14:24;100791.34;;;18.19;47.26
27613;BME280;15036;48.094;-1.690;2023-04-26T04:16:49;100794.91;;;18.03;47.53
27613;BME280;15036;48.094;-1.690;2023-04-26T04:19:15;100796.56;;;18.15;47.35
27613;BME280;15036;48.094;-1.690;2023-04-26T04:21:40;100790.56;;;18.07;47.74
27613;BME280;15036;48.094;-1.690;2023-04-26T04:24:07;100790.97;;;17.99;47.65
27613;BME280;15036;48.094;-1.690;2023-04-26T04:26:32;100790.44;;;17.85;48.52
27613;BME280;15036;48.094;-1.690;2023-04-26T04:28:58;100791.56;;;18.01;47.97
27613;BME280;15036;48.094;-1.690;2023-04-26T04:31:33;100793.13;;;17.97;48.18
27613;BME280;15036;48.094;-1.690;2023-04-26T04:33:58;100790.09;;;18.27;47.25
27613;BME280;15036;48.094;-1.690;2023-04-26T04:36:23;100793.13;;;18.25;47.55
27613;BME280;15036;48.094;-1.690;2023-04-26T04:38:50;100787.00;;;18.23;47.17
27613;BME280;15036;48.094;-1.690;2023-04-26T04:41:17;100796.88;;;18.02;48.16
27613;BME280;15036;48.094;-1.690;2023-04-26T04:43:44;100791.16;;;18.09;47.83
27613;BME280;15036;48.094;-1.690;2023-04-26T04:46:10;100787.81;;;18.07;48.20
27613;BME280;15036;48.094;-1.690;2023-04-26T04:48:35;100787.38;;;17.98;48.32
27613;BME280;15036;48.094;-1.690;2023-04-26T04:51:03;100805.28;;;17.96;48.41
27613;BME280;15036;48.094;-1.690;2023-04-26T04:53:28;100791.88;;;17.88;48.70
27613;BME280;15036;48.094;-1.690;2023-04-26T04:55:54;100801.41;;;17.97;48.79
27613;BME280;15036;48.094;-1.690;2023-04-26T04:58:20;100800.25;;;17.93;48.80
27613;BME280;15036;48.094;-1.690;2023-04-26T05:00:46;100792.72;;;17.77;49.23
27613;BME280;15036;48.094;-1.690;2023-04-26T05:03:13;100784.44;;;17.77;49.64
27613;BME280;15036;48.094;-1.690;2023-04-26T05:05:39;100792.19;;;17.91;50.17
27613;BME280;15036;48.094;-1.690;2023-04-26T05:08:04;100797.06;;;17.84;50.65
27613;BME280;15036;48.094;-1.690;2023-04-26T05:10:33;100797.59;;;17.58;51.21
27613;BME280;15036;48.094;-1.690;2023-04-26T05:13:00;100810.94;;;17.50;51.91
27613;BME280;15036;48.094;-1.690;2023-04-26T05:15:25;100806.94;;;17.69;51.44
27613;BME280;15036;48.094;-1.690;2023-04-26T05:17:51;100812.63;;;17.51;52.23
27613;BME280;15036;48.094;-1.690;2023-04-26T05:20:16;100803.19;;;17.75;51.67
27613;BME280;15036;48.094;-1.690;2023-04-26T05:22:42;100808.25;;;17.43;52.49
27613;BME280;15036;48.094;-1.690;2023-04-26T05:25:07;100817.72;;;17.47;52.43
27613;BME280;15036;48.094;-1.690;2023-04-26T05:27:33;100810.69;;;17.40;53.29
27613;BME280;15036;48.094;-1.690;2023-04-26T05:30:01;100813.56;;;17.21;53.89
27613;BME280;15036;48.094;-1.690;2023-04-26T05:32:27;100815.50;;;17.09;54.35
27613;BME280;15036;48.094;-1.690;2023-04-26T05:34:52;100814.19;;;17.35;53.39
27613;BME280;15036;48.094;-1.690;2023-04-26T05:37:18;100811.78;;;17.15;53.84
27613;BME280;15036;48.094;-1.690;2023-04-26T05:39:43;100811.53;;;17.28;53.71
27613;BME280;15036;48.094;-1.690;2023-04-26T05:42:08;100813.94;;;17.25;54.02
27613;BME280;15036;48.094;-1.690;2023-04-26T05:44:34;100809.38;;;17.30;53.71
27613;BME280;15036;48.094;-1.690;2023-04-26T05:47:00;100807.22;;;17.32;53.84
27613;BME280;15036;48.094;-1.690;2023-04-26T05:49:25;100800.84;;;17.32;53.82
27613;BME280;15036;48.094;-1.690;2023-04-26T05:51:51;100801.94;;;17.19;54.18
27613;BME280;15036;48.094;-1.690;2023-04-26T05:54:16;100802.53;;;17.33;54.01
27613;BME280;15036;48.094;-1.690;2023-04-26T05:56:41;100807.66;;;17.41;53.39
27613;BME280;15036;48.094;-1.690;2023-04-26T05:59:07;100816.56;;;17.31;53.76
27613;BME280;15036;48.094;-1.690;2023-04-26T06:01:33;100807.22;;;17.32;54.00
27613;BME280;15036;48.094;-1.690;2023-04-26T06:03:58;100810.81;;;17.45;54.02
27613;BME280;15036;48.094;-1.690;2023-04-26T06:06:24;100812.03;;;17.37;53.88
27613;BME280;15036;48.094;-1.690;2023-04-26T06:08:50;100807.44;;;17.43;53.67
27613;BME280;15036;48.094;-1.690;2023-04-26T06:11:15;100812.63;;;17.51;53.87
27613;BME280;15036;48.094;-1.690;2023-04-26T06:13:42;100820.75;;;17.46;53.71
27613;BME280;15036;48.094;-1.690;2023-04-26T06:16:07;100819.94;;;17.57;53.06
27613;BME280;15036;48.094;-1.690;2023-04-26T06:18:33;100817.56;;;17.49;53.29
27613;BME280;15036;48.094;-1.690;2023-04-26T06:20:58;100821.72;;;17.51;53.24
27613;BME280;15036;48.094;-1.690;2023-04-26T06:23:23;100819.31;;;17.66;53.03
27613;BME280;15036;48.094;-1.690;2023-04-26T06:25:49;100819.69;;;17.58;53.20
27613;BME280;15036;48.094;-1.690;2023-04-26T06:28:14;100811.75;;;17.62;52.70
27613;BME280;15036;48.094;-1.690;2023-04-26T06:30:41;100814.03;;;17.53;53.13
27613;BME280;15036;48.094;-1.690;2023-04-26T06:33:06;100826.53;;;17.56;53.10
27613;BME280;15036;48.094;-1.690;2023-04-26T06:35:38;100819.09;;;17.56;52.92
27613;BME280;15036;48.094;-1.690;2023-04-26T06:38:03;100813.78;;;17.66;52.84
27613;BME280;15036;48.094;-1.690;2023-04-26T06:40:29;100819.94;;;17.57;53.02
27613;BME280;15036;48.094;-1.690;2023-04-26T06:42:54;100818.84;;;17.46;53.40
27613;BME280;15036;48.094;-1.690;2023-04-26T06:45:21;100820.91;;;17.51;53.11
27613;BME280;15036;48.094;-1.690;2023-04-26T06:47:46;100826.75;;;17.66;53.01
27613;BME280;15036;48.094;-1.690;2023-04-26T06:50:12;100820.97;;;17.67;53.13
27613;BME280;15036;48.094;-1.690;2023-04-26T06:52:37;100816.16;;;17.74;52.92
27613;BME280;15036;48.094;-1.690;2023-04-26T06:55:03;100815.59;;;17.49;53.51
27613;BME280;15036;48.094;-1.690;2023-04-26T06:57:28;100812.59;;;17.62;53.66
27613;BME280;15036;48.094;-1.690;2023-04-26T06:59:54;100811.59;;;17.80;52.93
27613;BME280;15036;48.094;-1.690;2023-04-26T07:02:19;100817.78;;;17.87;52.91
27613;BME280;15036;48.094;-1.690;2023-04-26T07:04:47;100811.03;;;17.66;53.36
27613;BME280;15036;48.094;-1.690;2023-04-26T07:07:12;100815.34;;;17.62;53.17
27613;BME280;15036;48.094;-1.690;2023-04-26T07:09:38;100810.00;;;17.84;53.55
27613;BME280;15036;48.094;-1.690;2023-04-26T07:12:04;100805.75;;;17.93;53.35
27613;BME280;15036;48.094;-1.690;2023-04-26T07:14:29;100798.88;;;18.07;53.04
27613;BME280;15036;48.094;-1.690;2023-04-26T07:16:56;100807.59;;;18.15;52.95
27613;BME280;15036;48.094;-1.690;2023-04-26T07:19:21;100804.44;;;18.24;52.90
27613;BME280;15036;48.094;-1.690;2023-04-26T07:21:47;100807.34;;;18.17;52.75
27613;BME280;15036;48.094;-1.690;2023-04-26T07:24:12;100797.34;;;18.28;52.53
27613;BME280;15036;48.094;-1.690;2023-04-26T07:26:38;100805.31;;;18.12;52.96
27613;BME280;15036;48.094;-1.690;2023-04-26T07:29:03;100796.34;;;18.34;52.30
27613;BME280;15036;48.094;-1.690;2023-04-26T07:31:30;100801.88;;;18.34;52.61
27613;BME280;15036;48.094;-1.690;2023-04-26T07:33:56;100799.94;;;18.34;52.60
27613;BME280;15036;48.094;-1.690;2023-04-26T07:36:22;100794.25;;;18.41;52.36
27613;BME280;15036;48.094;-1.690;2023-04-26T07:38:47;100807.22;;;18.52;51.83
27613;BME280;15036;48.094;-1.690;2023-04-26T07:41:12;100805.78;;;18.49;52.03
27613;BME280;15036;48.094;-1.690;2023-04-26T07:43:40;100813.25;;;18.65;51.53
27613;BME280;15036;48.094;-1.690;2023-04-26T07:46:05;100808.06;;;18.41;51.85
27613;BME280;15036;48.094;-1.690;2023-04-26T07:48:33;100811.38;;;18.54;51.39
27613;BME280;15036;48.094;-1.690;2023-04-26T07:51:12;100803.59;;;18.68;51.52
27613;BME280;15036;48.094;-1.690;2023-04-26T07:53:38;100809.22;;;18.73;51.15
27613;BME280;15036;48.094;-1.690;2023-04-26T07:56:04;100807.81;;;18.42;51.74
27613;BME280;15036;48.094;-1.690;2023-04-26T07:58:32;100802.41;;;18.47;51.37
27613;BME280;15036;48.094;-1.690;2023-04-26T08:00:58;100805.94;;;18.59;51.72
27613;BME280;15036;48.094;-1.690;2023-04-26T08:03:23;100808.38;;;18.72;51.45
27613;BME280;15036;48.094;-1.690;2023-04-26T08:05:49;100811.63;;;18.86;50.97
27613;BME280;15036;48.094;-1.690;2023-04-26T08:08:14;100813.06;;;18.72;51.40
27613;BME280;15036;48.094;-1.690;2023-04-26T08:10:40;100806.78;;;18.60;51.96
27613;BME280;15036;48.094;-1.690;2023-04-26T08:13:06;100811.56;;;18.81;51.30
27613;BME280;15036;48.094;-1.690;2023-04-26T08:15:31;100810.91;;;18.90;50.96
27613;BME280;15036;48.094;-1.690;2023-04-26T08:17:57;100818.94;;;18.92;51.40
27613;BME280;15036;48.094;-1.690;2023-04-26T08:20:22;100812.75;;;18.85;51.46
27613;BME280;15036;48.094;-1.690;2023-04-26T08:22:48;100821.19;;;19.12;50.83
27613;BME280;15036;48.094;-1.690;2023-04-26T08:25:14;100823.44;;;19.15;50.89
27613;BME280;15036;48.094;-1.690;2023-04-26T08:27:39;100822.53;;;19.09;50.83
27613;BME280;15036;48.094;-1.690;2023-04-26T08:30:05;100814.28;;;19.31;50.46
27613;BME280;15036;48.094;-1.690;2023-04-26T08:32:31;100821.63;;;19.37;50.30
27613;BME280;15036;48.094;-1.690;2023-04-26T08:34:58;100823.44;;;19.31;50.38
27613;BME280;15036;48.094;-1.690;2023-04-26T08:37:24;100831.28;;;19.01;50.97
27613;BME280;15036;48.094;-1.690;2023-04-26T08:39:49;100825.78;;;19.39;50.31
27613;BME280;15036;48.094;-1.690;2023-04-26T08:42:16;100829.34;;;19.35;50.20
27613;BME280;15036;48.094;-1.690;2023-04-26T08:44:43;100828.03;;;19.26;50.54
27613;BME280;15036;48.094;-1.690;2023-04-26T08:47:28;100831.31;;;19.39;50.33
27613;BME280;15036;48.094;-1.690;2023-04-26T08:49:59;100827.03;;;19.32;50.29
27613;BME280;15036;48.094;-1.690;2023-04-26T08:52:30;100829.16;;;19.25;49.92
27613;BME280;15036;48.094;-1.690;2023-04-26T08:54:58;100821.69;;;19.09;51.45
27613;BME280;15036;48.094;-1.690;2023-04-26T08:57:24;100822.34;;;19.16;50.89
27613;BME280;15036;48.094;-1.690;2023-04-26T08:59:50;100821.75;;;19.30;50.85
27613;BME280;15036;48.094;-1.690;2023-04-26T09:02:21;100827.91;;;18.99;51.25
27613;BME280;15036;48.094;-1.690;2023-04-26T09:04:48;100824.03;;;19.17;50.66
27613;BME280;15036;48.094;-1.690;2023-04-26T09:07:19;100828.47;;;19.51;50.53
27613;BME280;15036;48.094;-1.690;2023-04-26T09:09:48;100833.47;;;19.54;50.35
27613;BME280;15036;48.094;-1.690;2023-04-26T09:12:18;100830.31;;;19.67;50.20
27613;BME280;15036;48.094;-1.690;2023-04-26T09:14:47;100834.97;;;19.61;50.15
27613;BME280;15036;48.094;-1.690;2023-04-26T09:17:25;100828.84;;;19.59;50.29
27613;BME280;15036;48.094;-1.690;2023-04-26T09:19:51;100835.06;;;19.50;50.52
27613;BME280;15036;48.094;-1.690;2023-04-26T09:22:49;100841.28;;;19.57;50.68
27613;BME280;15036;48.094;-1.690;2023-04-26T09:25:16;100835.84;;;19.67;50.37
27613;BME280;15036;48.094;-1.690;2023-04-26T09:27:43;100834.91;;;19.78;49.94
27613;BME280;15036;48.094;-1.690;2023-04-26T09:30:12;100854.00;;;19.74;50.28
27613;BME280;15036;48.094;-1.690;2023-04-26T09:32:51;100849.34;;;19.80;50.18
27613;BME280;15036;48.094;-1.690;2023-04-26T09:40:32;100858.41;;;19.97;50.30
27613;BME280;15036;48.094;-1.690;2023-04-26T09:43:12;100854.59;;;20.20;50.24
27613;BME280;15036;48.094;-1.690;2023-04-26T09:48:24;100851.22;;;20.44;49.42
27613;BME280;15036;48.094;-1.690;2023-04-26T09:51:00;100852.22;;;20.33;49.48
27613;BME280;15036;48.094;-1.690;2023-04-26T09:53:35;100856.97;;;20.59;48.90
27613;BME280;15036;48.094;-1.690;2023-04-26T09:58:36;100848.34;;;20.88;48.93
27613;BME280;15036;48.094;-1.690;2023-04-26T10:01:03;100849.81;;;20.68;49.37
27613;BME280;15036;48.094;-1.690;2023-04-26T10:03:33;100845.31;;;20.94;48.82
27613;BME280;15036;48.094;-1.690;2023-04-26T10:05:59;100852.13;;;21.03;48.73
27613;BME280;15036;48.094;-1.690;2023-04-26T10:08:24;100850.09;;;21.30;47.78
27613;BME280;15036;48.094;-1.690;2023-04-26T10:10:50;100848.72;;;21.33;47.83
27613;BME280;15036;48.094;-1.690;2023-04-26T10:13:17;100845.22;;;21.11;47.64
27613;BME280;15036;48.094;-1.690;2023-04-26T10:15:43;100850.53;;;21.59;47.52
27613;BME280;15036;48.094;-1.690;2023-04-26T10:18:09;100835.66;;;21.80;46.60
27613;BME280;15036;48.094;-1.690;2023-04-26T10:20:41;100837.09;;;21.83;46.24
27613;BME280;15036;48.094;-1.690;2023-04-26T10:23:16;100837.50;;;22.16;46.09
27613;BME280;15036;48.094;-1.690;2023-04-26T10:25:45;100834.47;;;22.28;45.85
27613;BME280;15036;48.094;-1.690;2023-04-26T10:28:11;100837.88;;;22.50;44.95
27613;BME280;15036;48.094;-1.690;2023-04-26T10:30:56;100829.84;;;22.79;44.62
27613;BME280;15036;48.094;-1.690;2023-04-26T10:33:23;100825.13;;;22.79;44.98
27613;BME280;15036;48.094;-1.690;2023-04-26T10:36:09;100826.50;;;22.92;44.44
27613;BME280;15036;48.094;-1.690;2023-04-26T10:38:38;100825.13;;;22.79;44.34
27613;BME280;15036;48.094;-1.690;2023-04-26T10:41:33;100824.25;;;23.04;44.04
27613;BME280;15036;48.094;-1.690;2023-04-26T10:44:00;100820.38;;;23.05;43.89
27613;BME280;15036;48.094;-1.690;2023-04-26T10:46:49;100822.28;;;23.19;43.95
27613;BME280;15036;48.094;-1.690;2023-04-26T10:49:23;100818.69;;;23.24;43.70
27613;BME280;15036;48.094;-1.690;2023-04-26T10:52:12;100829.84;;;23.04;44.06
27613;BME280;15036;48.094;-1.690;2023-04-26T10:54:52;100832.91;;;23.02;44.33
27613;BME280;15036;48.094;-1.690;2023-04-26T10:57:20;100830.94;;;23.23;44.22
27613;BME280;15036;48.094;-1.690;2023-04-26T11:02:55;100832.63;;;23.14;44.17
27613;BME280;15036;48.094;-1.690;2023-04-26T11:05:46;100829.00;;;23.28;44.10
27613;BME280;15036;48.094;-1.690;2023-04-26T11:08:19;100825.38;;;23.28;44.04
27613;BME280;15036;48.094;-1.690;2023-04-26T11:11:04;100824.81;;;23.16;44.46
27613;BME280;15036;48.094;-1.690;2023-04-26T11:13:40;100828.16;;;22.88;44.49
27613;BME280;15036;48.094;-1.690;2023-04-26T11:16:07;100825.94;;;23.35;44.18
27613;BME280;15036;48.094;-1.690;2023-04-26T11:18:34;100819.78;;;23.48;43.87
27613;BME280;15036;48.094;-1.690;2023-04-26T11:21:00;100824.75;;;23.66;43.75
27613;BME280;15036;48.094;-1.690;2023-04-26T11:23:28;100818.81;;;23.83;43.32
27613;BME280;15036;48.094;-1.690;2023-04-26T11:25:58;100828.06;;;23.73;43.11
27613;BME280;15036;48.094;-1.690;2023-04-26T11:28:23;100829.44;;;23.76;43.23
27613;BME280;15036;48.094;-1.690;2023-04-26T11:30:49;100838.59;;;23.96;42.38
27613;BME280;15036;48.094;-1.690;2023-04-26T11:33:16;100835.63;;;23.63;42.99
27613;BME280;15036;48.094;-1.690;2023-04-26T11:35:50;100834.75;;;23.77;43.50
27613;BME280;15036;48.094;-1.690;2023-04-26T11:38:17;100836.81;;;24.21;42.90
27613;BME280;15036;48.094;-1.690;2023-04-26T11:40:43;100837.28;;;24.38;42.37
27613;BME280;15036;48.094;-1.690;2023-04-26T11:43:09;100843.31;;;24.55;41.73
27613;BME280;15036;48.094;-1.690;2023-04-26T11:45:37;100839.47;;;24.41;41.95
27613;BME280;15036;48.094;-1.690;2023-04-26T11:48:04;100846.34;;;24.58;41.76
27613;BME280;15036;48.094;-1.690;2023-04-26T11:50:32;100842.81;;;24.43;41.81
27613;BME280;15036;48.094;-1.690;2023-04-26T11:52:59;100842.16;;;24.12;42.43
27613;BME280;15036;48.094;-1.690;2023-04-26T11:55:29;100835.25;;;23.94;42.57
27613;BME280;15036;48.094;-1.690;2023-04-26T11:58:13;100831.31;;;23.95;42.76
27613;BME280;15036;48.094;-1.690;2023-04-26T12:00:58;100828.03;;;23.88;42.78
27613;BME280;15036;48.094;-1.690;2023-04-26T12:03:31;100825.59;;;23.62;43.27
27613;BME280;15036;48.094;-1.690;2023-04-26T12:05:59;100827.88;;;23.24;44.12
27613;BME280;15036;48.094;-1.690;2023-04-26T12:08:26;100818.94;;;23.48;43.55
27613;BME280;15036;48.094;-1.690;2023-04-26T12:10:53;100822.84;;;23.42;44.07
27613;BME280;15036;48.094;-1.690;2023-04-26T12:13:19;100819.22;;;23.46;44.47
27613;BME280;15036;48.094;-1.690;2023-04-26T12:15:45;100810.59;;;23.38;44.15
27613;BME280;15036;48.094;-1.690;2023-04-26T12:18:11;100808.63;;;23.48;44.33
27613;BME280;15036;48.094;-1.690;2023-04-26T12:20:41;100800.72;;;23.80;43.95
27613;BME280;15036;48.094;-1.690;2023-04-26T12:23:13;100803.91;;;24.18;43.11
27613;BME280;15036;48.094;-1.690;2023-04-26T12:25:39;100803.81;;;24.76;41.71
27613;BME280;15036;48.094;-1.690;2023-04-26T12:28:09;100809.31;;;24.86;41.59
27613;BME280;15036;48.094;-1.690;2023-04-26T12:30:37;100810.69;;;24.89;40.99
27613;BME280;15036;48.094;-1.690;2023-04-26T12:33:03;100815.19;;;25.14;40.54
27613;BME280;15036;48.094;-1.690;2023-04-26T12:35:30;100805.50;;;25.06;40.21
27613;BME280;15036;48.094;-1.690;2023-04-26T12:37:56;100814.44;;;25.08;40.22
27613;BME280;15036;48.094;-1.690;2023-04-26T12:40:23;100819.84;;;25.00;39.86
27613;BME280;15036;48.094;-1.690;2023-04-26T12:42:49;100825.69;;;24.98;40.07
27613;BME280;15036;48.094;-1.690;2023-04-26T12:45:15;100825.19;;;25.25;39.61
27613;BME280;15036;48.094;-1.690;2023-04-26T12:47:46;100811.91;;;25.40;39.49
27613;BME280;15036;48.094;-1.690;2023-04-26T12:50:12;100828.22;;;25.81;39.43
27613;BME280;15036;48.094;-1.690;2023-04-26T12:52:39;100821.19;;;26.30;38.42
27613;BME280;15036;48.094;-1.690;2023-04-26T12:55:09;100830.63;;;26.53;37.83